sensor_id;sensor_type;location;lat;lon;timestamp;P1;durP1;ratioP1;P2;durP2;ratioP2
55575;SDS011;41437;45.478;9.116;2022-11-15T00:01:24;27.95;;;19.50;;
55575;SDS011;41437;45.478;9.116;2022-11-15T00:04:25;24.85;;;17.48;;
55575;SDS011;41437;45.478;9.116;2022-11-15T00:07:27;27.00;;;17.17;;
55575;SDS011;41437;45.478;9.116;2022-11-15T00:10:30;24.88;;;17.02;;
55575;SDS011;41437;45.478;9.116;2022-11-15T00:13:31;24.05;;;16.75;;
55575;SDS011;41437;45.478;9.116;2022-11-15T00:16:33;27.02;;;17.70;;
55575;SDS011;41437;45.478;9.116;2022-11-15T00:19:34;25.67;;;17.75;;
55575;SDS011;41437;45.478;9.116;2022-11-15T00:22:36;21.67;;;14.93;;
55575;SDS011;41437;45.478;9.116;2022-11-15T00:25:39;20.27;;;15.10;;
55575;SDS011;41437;45.478;9.116;2022-11-15T00:28:44;39.70;;;15.60;;
55575;SDS011;41437;45.478;9.116;2022-11-15T00:31:45;27.75;;;14.32;;
55575;SDS011;41437;45.478;9.116;2022-11-15T00:34:47;24.33;;;15.55;;
55575;SDS011;41437;45.478;9.116;2022-11-15T00:37:48;23.60;;;15.70;;
55575;SDS011;41437;45.478;9.116;2022-11-15T00:40:51;23.50;;;16.90;;
55575;SDS011;41437;45.478;9.116;2022-11-15T00:43:53;24.45;;;16.48;;
55575;SDS011;41437;45.478;9.116;2022-11-15T00:46:55;24.40;;;16.45;;
55575;SDS011;41437;45.478;9.116;2022-11-15T00:49:56;25.40;;;16.85;;
55575;SDS011;41437;45.478;9.116;2022-11-15T00:52:58;23.45;;;17.08;;
55575;SDS011;41437;45.478;9.116;2022-11-15T00:56:03;23.48;;;16.17;;
55575;SDS011;41437;45.478;9.116;2022-11-15T00:59:05;25.70;;;16.75;;
55575;SDS011;41437;45.478;9.116;2022-11-15T01:02:07;23.35;;;16.45;;
55575;SDS011;41437;45.478;9.116;2022-11-15T01:05:08;22.13;;;16.05;;
55575;SDS011;41437;45.478;9.116;2022-11-15T01:08:11;22.17;;;16.08;;
55575;SDS011;41437;45.478;9.116;2022-11-15T01:11:16;21.70;;;15.80;;
55575;SDS011;41437;45.478;9.116;2022-11-15T01:14:17;21.33;;;15.25;;
55575;SDS011;41437;45.478;9.116;2022-11-15T01:17:22;21.25;;;14.93;;
55575;SDS011;41437;45.478;9.116;2022-11-15T01:20:23;20.45;;;14.40;;
55575;SDS011;41437;45.478;9.116;2022-11-15T01:23:25;21.20;;;15.00;;
55575;SDS011;41437;45.478;9.116;2022-11-15T01:26:28;23.40;;;16.08;;
55575;SDS011;41437;45.478;9.116;2022-11-15T01:29:30;18.63;;;13.40;;
55575;SDS011;41437;45.478;9.116;2022-11-15T01:32:31;132.80;;;14.13;;
55575;SDS011;41437;45.478;9.116;2022-11-15T01:35:33;16.95;;;12.65;;
55575;SDS011;41437;45.478;9.116;2022-11-15T01:38:39;19.20;;;14.18;;
55575;SDS011;41437;45.478;9.116;2022-11-15T01:41:42;20.63;;;14.43;;
55575;SDS011;41437;45.478;9.116;2022-11-15T01:44:45;18.85;;;13.88;;
55575;SDS011;41437;45.478;9.116;2022-11-15T01:47:50;17.58;;;12.95;;
55575;SDS011;41437;45.478;9.116;2022-11-15T01:50:55;19.48;;;14.27;;
55575;SDS011;41437;45.478;9.116;2022-11-15T01:53:58;21.85;;;14.95;;
55575;SDS011;41437;45.478;9.116;2022-11-15T01:57:06;22.20;;;16.17;;
55575;SDS011;41437;45.478;9.116;2022-11-15T02:00:12;21.02;;;15.45;;
55575;SDS011;41437;45.478;9.116;2022-11-15T02:03:14;21.67;;;15.25;;
55575;SDS011;41437;45.478;9.116;2022-11-15T02:06:16;23.35;;;16.35;;
55575;SDS011;41437;45.478;9.116;2022-11-15T02:09:18;22.70;;;16.33;;
55575;SDS011;41437;45.478;9.116;2022-11-15T02:12:21;22.15;;;15.75;;
55575;SDS011;41437;45.478;9.116;2022-11-15T02:15:24;23.48;;;16.50;;
55575;SDS011;41437;45.478;9.116;2022-11-15T02:18:32;24.58;;;15.98;;
55575;SDS011;41437;45.478;9.116;2022-11-15T02:21:39;21.08;;;14.52;;
55575;SDS011;41437;45.478;9.116;2022-11-15T02:24:52;21.92;;;15.80;;
55575;SDS011;41437;45.478;9.116;2022-11-15T02:28:20;23.38;;;15.65;;
55575;SDS011;41437;45.478;9.116;2022-11-15T02:31:35;22.77;;;16.45;;
55575;SDS011;41437;45.478;9.116;2022-11-15T02:34:43;21.40;;;15.25;;
55575;SDS011;41437;45.478;9.116;2022-11-15T02:37:56;20.10;;;15.00;;
55575;SDS011;41437;45.478;9.116;2022-11-15T02:41:00;20.85;;;14.32;;
55575;SDS011;41437;45.478;9.116;2022-11-15T02:44:04;20.30;;;14.50;;
55575;SDS011;41437;45.478;9.116;2022-11-15T02:47:13;19.45;;;14.40;;
55575;SDS011;41437;45.478;9.116;2022-11-15T02:50:20;21.33;;;15.07;;
55575;SDS011;41437;45.478;9.116;2022-11-15T02:53:24;21.27;;;15.05;;
55575;SDS011;41437;45.478;9.116;2022-11-15T02:56:26;17.02;;;12.77;;
55575;SDS011;41437;45.478;9.116;2022-11-15T03:03:19;20.35;;;15.35;;
55575;SDS011;41437;45.478;9.116;2022-11-15T03:06:36;24.48;;;17.20;;
55575;SDS011;41437;45.478;9.116;2022-11-15T03:09:45;24.52;;;17.00;;
55575;SDS011;41437;45.478;9.116;2022-11-15T03:12:54;21.73;;;15.65;;
55575;SDS011;41437;45.478;9.116;2022-11-15T03:16:01;23.60;;;16.52;;
55575;SDS011;41437;45.478;9.116;2022-11-15T03:19:12;24.88;;;16.58;;
55575;SDS011;41437;45.478;9.116;2022-11-15T03:22:18;24.25;;;17.33;;
55575;SDS011;41437;45.478;9.116;2022-11-15T03:25:22;25.67;;;17.15;;
55575;SDS011;41437;45.478;9.116;2022-11-15T03:28:28;24.45;;;17.17;;
55575;SDS011;41437;45.478;9.116;2022-11-15T03:31:36;25.85;;;17.52;;
55575;SDS011;41437;45.478;9.116;2022-11-15T03:34:55;24.77;;;16.85;;
55575;SDS011;41437;45.478;9.116;2022-11-15T03:38:00;24.55;;;16.27;;
55575;SDS011;41437;45.478;9.116;2022-11-15T03:41:11;22.65;;;15.65;;
55575;SDS011;41437;45.478;9.116;2022-11-15T03:44:20;22.13;;;15.88;;
55575;SDS011;41437;45.478;9.116;2022-11-15T03:47:34;23.75;;;16.63;;
55575;SDS011;41437;45.478;9.116;2022-11-15T03:50:41;24.15;;;16.50;;
55575;SDS011;41437;45.478;9.116;2022-11-15T03:53:44;21.38;;;16.42;;
55575;SDS011;41437;45.478;9.116;2022-11-15T03:56:46;22.70;;;15.35;;
55575;SDS011;41437;45.478;9.116;2022-11-15T03:59:48;23.17;;;16.35;;
55575;SDS011;41437;45.478;9.116;2022-11-15T04:02:50;22.02;;;15.93;;
55575;SDS011;41437;45.478;9.116;2022-11-15T04:05:54;23.27;;;16.30;;
55575;SDS011;41437;45.478;9.116;2022-11-15T04:08:56;22.95;;;15.90;;
55575;SDS011;41437;45.478;9.116;2022-11-15T04:11:57;25.75;;;16.13;;
55575;SDS011;41437;45.478;9.116;2022-11-15T04:14:59;22.63;;;15.48;;
55575;SDS011;41437;45.478;9.116;2022-11-15T04:18:09;24.08;;;16.05;;
55575;SDS011;41437;45.478;9.116;2022-11-15T04:21:12;21.35;;;15.23;;
55575;SDS011;41437;45.478;9.116;2022-11-15T04:24:31;21.02;;;15.15;;
55575;SDS011;41437;45.478;9.116;2022-11-15T04:27:33;20.48;;;16.30;;
55575;SDS011;41437;45.478;9.116;2022-11-15T04:30:34;22.08;;;15.35;;
55575;SDS011;41437;45.478;9.116;2022-11-15T04:33:36;22.40;;;15.35;;
55575;SDS011;41437;45.478;9.116;2022-11-15T04:36:39;21.27;;;15.80;;
55575;SDS011;41437;45.478;9.116;2022-11-15T04:39:58;22.40;;;15.30;;
55575;SDS011;41437;45.478;9.116;2022-11-15T04:43:00;21.55;;;14.73;;
55575;SDS011;41437;45.478;9.116;2022-11-15T04:46:02;22.77;;;15.45;;
55575;SDS011;41437;45.478;9.116;2022-11-15T04:49:04;20.70;;;14.85;;
55575;SDS011;41437;45.478;9.116;2022-11-15T04:52:07;21.50;;;15.07;;
55575;SDS011;41437;45.478;9.116;2022-11-15T04:55:08;22.52;;;16.63;;
55575;SDS011;41437;45.478;9.116;2022-11-15T04:58:10;23.13;;;16.42;;
55575;SDS011;41437;45.478;9.116;2022-11-15T05:01:12;24.83;;;16.73;;
55575;SDS011;41437;45.478;9.116;2022-11-15T05:04:15;22.58;;;16.08;;
55575;SDS011;41437;45.478;9.116;2022-11-15T05:07:24;22.55;;;14.93;;
55575;SDS011;41437;45.478;9.116;2022-11-15T05:10:26;23.88;;;15.23;;
55575;SDS011;41437;45.478;9.116;2022-11-15T05:13:27;22.17;;;15.13;;
55575;SDS011;41437;45.478;9.116;2022-11-15T05:16:31;25.15;;;16.02;;
55575;SDS011;41437;45.478;9.116;2022-11-15T05:19:32;21.02;;;14.48;;
55575;SDS011;41437;45.478;9.116;2022-11-15T05:22:35;20.15;;;14.32;;
55575;SDS011;41437;45.478;9.116;2022-11-15T05:25:38;19.40;;;14.50;;
55575;SDS011;41437;45.478;9.116;2022-11-15T05:28:39;22.52;;;14.93;;
55575;SDS011;41437;45.478;9.116;2022-11-15T05:31:41;20.30;;;14.48;;
55575;SDS011;41437;45.478;9.116;2022-11-15T05:34:43;19.25;;;14.15;;
55575;SDS011;41437;45.478;9.116;2022-11-15T05:37:46;21.98;;;14.88;;
55575;SDS011;41437;45.478;9.116;2022-11-15T05:40:49;21.30;;;15.48;;
55575;SDS011;41437;45.478;9.116;2022-11-15T05:43:50;24.25;;;15.30;;
55575;SDS011;41437;45.478;9.116;2022-11-15T05:46:52;22.13;;;14.45;;
55575;SDS011;41437;45.478;9.116;2022-11-15T05:49:57;19.65;;;13.63;;
55575;SDS011;41437;45.478;9.116;2022-11-15T05:53:00;21.30;;;14.27;;
55575;SDS011;41437;45.478;9.116;2022-11-15T05:56:03;21.00;;;14.60;;
55575;SDS011;41437;45.478;9.116;2022-11-15T05:59:06;20.45;;;14.13;;
55575;SDS011;41437;45.478;9.116;2022-11-15T06:02:09;22.40;;;14.57;;
55575;SDS011;41437;45.478;9.116;2022-11-15T06:05:12;21.67;;;14.55;;
55575;SDS011;41437;45.478;9.116;2022-11-15T06:08:15;22.20;;;14.40;;
55575;SDS011;41437;45.478;9.116;2022-11-15T06:11:17;21.33;;;14.47;;
55575;SDS011;41437;45.478;9.116;2022-11-15T06:14:18;20.42;;;14.90;;
55575;SDS011;41437;45.478;9.116;2022-11-15T06:17:20;19.90;;;14.82;;
55575;SDS011;41437;45.478;9.116;2022-11-15T06:20:24;23.23;;;14.98;;
55575;SDS011;41437;45.478;9.116;2022-11-15T06:23:27;19.55;;;14.68;;
55575;SDS011;41437;45.478;9.116;2022-11-15T06:26:32;23.33;;;15.48;;
55575;SDS011;41437;45.478;9.116;2022-11-15T06:29:33;22.80;;;16.05;;
55575;SDS011;41437;45.478;9.116;2022-11-15T06:32:35;21.27;;;14.90;;
55575;SDS011;41437;45.478;9.116;2022-11-15T06:35:37;24.67;;;15.20;;
55575;SDS011;41437;45.478;9.116;2022-11-15T06:38:40;23.10;;;15.95;;
55575;SDS011;41437;45.478;9.116;2022-11-15T06:41:41;19.98;;;14.85;;
55575;SDS011;41437;45.478;9.116;2022-11-15T06:44:43;22.50;;;15.45;;
55575;SDS011;41437;45.478;9.116;2022-11-15T06:47:45;22.35;;;15.57;;
55575;SDS011;41437;45.478;9.116;2022-11-15T06:50:50;23.58;;;16.00;;
55575;SDS011;41437;45.478;9.116;2022-11-15T06:53:53;21.88;;;15.55;;
55575;SDS011;41437;45.478;9.116;2022-11-15T06:56:55;24.17;;;15.40;;
55575;SDS011;41437;45.478;9.116;2022-11-15T06:59:57;22.48;;;15.80;;
55575;SDS011;41437;45.478;9.116;2022-11-15T07:02:59;20.65;;;15.50;;
55575;SDS011;41437;45.478;9.116;2022-11-15T07:06:01;21.58;;;15.23;;
55575;SDS011;41437;45.478;9.116;2022-11-15T07:09:04;24.00;;;15.50;;
55575;SDS011;41437;45.478;9.116;2022-11-15T07:12:09;19.00;;;14.25;;
55575;SDS011;41437;45.478;9.116;2022-11-15T07:15:11;18.20;;;13.43;;
55575;SDS011;41437;45.478;9.116;2022-11-15T07:18:12;18.35;;;12.93;;
55575;SDS011;41437;45.478;9.116;2022-11-15T07:21:14;18.00;;;13.88;;
55575;SDS011;41437;45.478;9.116;2022-11-15T07:24:17;17.95;;;13.30;;
55575;SDS011;41437;45.478;9.116;2022-11-15T07:27:19;20.63;;;14.23;;
55575;SDS011;41437;45.478;9.116;2022-11-15T07:30:21;20.38;;;13.07;;
55575;SDS011;41437;45.478;9.116;2022-11-15T07:33:22;21.48;;;13.77;;
55575;SDS011;41437;45.478;9.116;2022-11-15T07:36:24;18.55;;;13.50;;
55575;SDS011;41437;45.478;9.116;2022-11-15T07:39:27;21.73;;;14.30;;
55575;SDS011;41437;45.478;9.116;2022-11-15T07:42:30;19.42;;;14.77;;
55575;SDS011;41437;45.478;9.116;2022-11-15T07:45:49;21.83;;;15.07;;
55575;SDS011;41437;45.478;9.116;2022-11-15T07:48:51;22.73;;;15.30;;
55575;SDS011;41437;45.478;9.116;2022-11-15T07:51:53;20.75;;;14.95;;
55575;SDS011;41437;45.478;9.116;2022-11-15T07:54:55;18.30;;;14.07;;
55575;SDS011;41437;45.478;9.116;2022-11-15T07:58:00;20.73;;;13.45;;
55575;SDS011;41437;45.478;9.116;2022-11-15T08:01:03;20.55;;;14.82;;
55575;SDS011;41437;45.478;9.116;2022-11-15T08:04:09;20.52;;;14.63;;
55575;SDS011;41437;45.478;9.116;2022-11-15T08:07:11;21.48;;;15.10;;
55575;SDS011;41437;45.478;9.116;2022-11-15T08:10:14;20.65;;;14.80;;
55575;SDS011;41437;45.478;9.116;2022-11-15T08:13:21;20.90;;;14.82;;
55575;SDS011;41437;45.478;9.116;2022-11-15T08:16:23;20.63;;;14.77;;
55575;SDS011;41437;45.478;9.116;2022-11-15T08:19:25;19.63;;;13.70;;
55575;SDS011;41437;45.478;9.116;2022-11-15T08:22:26;20.48;;;14.25;;
55575;SDS011;41437;45.478;9.116;2022-11-15T08:25:32;20.55;;;13.73;;
55575;SDS011;41437;45.478;9.116;2022-11-15T08:28:34;20.73;;;14.77;;
55575;SDS011;41437;45.478;9.116;2022-11-15T08:31:36;20.38;;;14.52;;
55575;SDS011;41437;45.478;9.116;2022-11-15T08:34:38;20.85;;;15.10;;
55575;SDS011;41437;45.478;9.116;2022-11-15T08:37:40;19.55;;;13.95;;
55575;SDS011;41437;45.478;9.116;2022-11-15T08:40:43;21.00;;;14.98;;
55575;SDS011;41437;45.478;9.116;2022-11-15T08:43:44;21.02;;;14.65;;
55575;SDS011;41437;45.478;9.116;2022-11-15T08:46:46;18.85;;;14.10;;
55575;SDS011;41437;45.478;9.116;2022-11-15T08:49:49;23.40;;;15.15;;
55575;SDS011;41437;45.478;9.116;2022-11-15T08:52:50;22.33;;;14.65;;
55575;SDS011;41437;45.478;9.116;2022-11-15T08:55:53;19.48;;;14.68;;
55575;SDS011;41437;45.478;9.116;2022-11-15T08:58:55;25.42;;;16.35;;
55575;SDS011;41437;45.478;9.116;2022-11-15T09:01:56;21.80;;;15.23;;
55575;SDS011;41437;45.478;9.116;2022-11-15T09:04:58;20.63;;;15.40;;
55575;SDS011;41437;45.478;9.116;2022-11-15T09:08:00;20.95;;;15.85;;
55575;SDS011;41437;45.478;9.116;2022-11-15T09:11:03;23.27;;;15.15;;
55575;SDS011;41437;45.478;9.116;2022-11-15T09:14:06;24.50;;;15.50;;
55575;SDS011;41437;45.478;9.116;2022-11-15T09:17:07;23.85;;;16.58;;
55575;SDS011;41437;45.478;9.116;2022-11-15T09:23:13;22.13;;;15.90;;
55575;SDS011;41437;45.478;9.116;2022-11-15T09:26:16;24.23;;;16.38;;
55575;SDS011;41437;45.478;9.116;2022-11-15T09:29:17;22.35;;;16.40;;
55575;SDS011;41437;45.478;9.116;2022-11-15T09:32:19;24.73;;;16.88;;
55575;SDS011;41437;45.478;9.116;2022-11-15T09:35:22;27.20;;;17.02;;
55575;SDS011;41437;45.478;9.116;2022-11-15T09:38:24;25.60;;;17.08;;
55575;SDS011;41437;45.478;9.116;2022-11-15T09:41:34;25.60;;;17.45;;
55575;SDS011;41437;45.478;9.116;2022-11-15T09:44:53;25.05;;;17.17;;
55575;SDS011;41437;45.478;9.116;2022-11-15T09:48:11;25.30;;;17.98;;
55575;SDS011;41437;45.478;9.116;2022-11-15T09:51:30;24.50;;;17.88;;
55575;SDS011;41437;45.478;9.116;2022-11-15T09:54:34;26.33;;;18.50;;
55575;SDS011;41437;45.478;9.116;2022-11-15T09:57:39;27.50;;;18.07;;
55575;SDS011;41437;45.478;9.116;2022-11-15T10:00:46;26.83;;;18.92;;
55575;SDS011;41437;45.478;9.116;2022-11-15T10:03:52;23.95;;;18.08;;
55575;SDS011;41437;45.478;9.116;2022-11-15T10:07:01;28.13;;;19.10;;
55575;SDS011;41437;45.478;9.116;2022-11-15T10:10:11;26.13;;;18.05;;
55575;SDS011;41437;45.478;9.116;2022-11-15T10:13:21;26.75;;;18.63;;
55575;SDS011;41437;45.478;9.116;2022-11-15T10:16:32;28.55;;;17.98;;
55575;SDS011;41437;45.478;9.116;2022-11-15T10:19:50;26.05;;;18.65;;
55575;SDS011;41437;45.478;9.116;2022-11-15T10:22:58;31.50;;;20.08;;
55575;SDS011;41437;45.478;9.116;2022-11-15T10:26:04;36.75;;;20.65;;
55575;SDS011;41437;45.478;9.116;2022-11-15T10:29:13;33.08;;;20.65;;
55575;SDS011;41437;45.478;9.116;2022-11-15T10:32:20;33.53;;;20.73;;
55575;SDS011;41437;45.478;9.116;2022-11-15T10:35:23;28.92;;;19.65;;
55575;SDS011;41437;45.478;9.116;2022-11-15T10:38:26;29.83;;;20.48;;
55575;SDS011;41437;45.478;9.116;2022-11-15T10:41:35;30.52;;;20.60;;
55575;SDS011;41437;45.478;9.116;2022-11-15T10:44:41;33.17;;;21.05;;
55575;SDS011;41437;45.478;9.116;2022-11-15T10:47:44;30.45;;;20.70;;
55575;SDS011;41437;45.478;9.116;2022-11-15T10:50:46;28.52;;;20.30;;
55575;SDS011;41437;45.478;9.116;2022-11-15T10:53:48;32.13;;;21.77;;
55575;SDS011;41437;45.478;9.116;2022-11-15T10:56:53;32.13;;;20.55;;
55575;SDS011;41437;45.478;9.116;2022-11-15T10:59:58;30.25;;;20.13;;
55575;SDS011;41437;45.478;9.116;2022-11-15T11:03:02;30.58;;;20.25;;
55575;SDS011;41437;45.478;9.116;2022-11-15T11:06:08;32.58;;;22.15;;
55575;SDS011;41437;45.478;9.116;2022-11-15T11:09:30;31.33;;;21.45;;
55575;SDS011;41437;45.478;9.116;2022-11-15T11:12:33;31.67;;;22.63;;
55575;SDS011;41437;45.478;9.116;2022-11-15T11:15:36;50.40;;;31.48;;
55575;SDS011;41437;45.478;9.116;2022-11-15T11:18:42;43.05;;;29.60;;
55575;SDS011;41437;45.478;9.116;2022-11-15T11:21:51;34.67;;;22.48;;
55575;SDS011;41437;45.478;9.116;2022-11-15T11:25:04;42.42;;;26.77;;
55575;SDS011;41437;45.478;9.116;2022-11-15T11:28:20;47.65;;;29.25;;
55575;SDS011;41437;45.478;9.116;2022-11-15T11:31:37;42.47;;;28.23;;
55575;SDS011;41437;45.478;9.116;2022-11-15T11:34:49;35.45;;;24.23;;
55575;SDS011;41437;45.478;9.116;2022-11-15T11:38:04;32.58;;;21.90;;
55575;SDS011;41437;45.478;9.116;2022-11-15T11:41:20;38.42;;;24.98;;
55575;SDS011;41437;45.478;9.116;2022-11-15T11:44:33;34.45;;;22.08;;
55575;SDS011;41437;45.478;9.116;2022-11-15T11:47:46;37.03;;;24.88;;
55575;SDS011;41437;45.478;9.116;2022-11-15T11:50:49;40.08;;;25.08;;
55575;SDS011;41437;45.478;9.116;2022-11-15T11:53:52;36.45;;;25.55;;
55575;SDS011;41437;45.478;9.116;2022-11-15T11:57:09;38.83;;;24.95;;
55575;SDS011;41437;45.478;9.116;2022-11-15T12:00:18;38.90;;;25.23;;
55575;SDS011;41437;45.478;9.116;2022-11-15T12:03:24;34.33;;;22.02;;
55575;SDS011;41437;45.478;9.116;2022-11-15T12:06:31;34.03;;;22.77;;
55575;SDS011;41437;45.478;9.116;2022-11-15T12:09:35;34.35;;;23.55;;
55575;SDS011;41437;45.478;9.116;2022-11-15T12:12:44;33.83;;;23.52;;
55575;SDS011;41437;45.478;9.116;2022-11-15T12:15:50;31.55;;;22.42;;
55575;SDS011;41437;45.478;9.116;2022-11-15T12:19:00;32.80;;;22.48;;
55575;SDS011;41437;45.478;9.116;2022-11-15T12:22:04;35.28;;;24.08;;
55575;SDS011;41437;45.478;9.116;2022-11-15T12:25:15;32.25;;;21.80;;
55575;SDS011;41437;45.478;9.116;2022-11-15T12:28:28;35.10;;;24.15;;
55575;SDS011;41437;45.478;9.116;2022-11-15T12:31:40;36.95;;;25.02;;
55575;SDS011;41437;45.478;9.116;2022-11-15T12:34:46;34.13;;;23.65;;
55575;SDS011;41437;45.478;9.116;2022-11-15T12:37:50;33.63;;;23.05;;
55575;SDS011;41437;45.478;9.116;2022-11-15T12:58:39;36.88;;;24.42;;
55575;SDS011;41437;45.478;9.116;2022-11-15T13:01:57;35.95;;;24.05;;
55575;SDS011;41437;45.478;9.116;2022-11-15T13:08:49;36.42;;;23.65;;
55575;SDS011;41437;45.478;9.116;2022-11-15T13:11:51;35.80;;;24.42;;
55575;SDS011;41437;45.478;9.116;2022-11-15T13:14:53;32.92;;;23.40;;
55575;SDS011;41437;45.478;9.116;2022-11-15T13:17:56;34.55;;;24.38;;
55575;SDS011;41437;45.478;9.116;2022-11-15T13:20:58;37.72;;;24.83;;
55575;SDS011;41437;45.478;9.116;2022-11-15T13:24:02;34.65;;;23.05;;
55575;SDS011;41437;45.478;9.116;2022-11-15T13:27:09;33.10;;;22.25;;
55575;SDS011;41437;45.478;9.116;2022-11-15T13:30:19;32.60;;;20.85;;
55575;SDS011;41437;45.478;9.116;2022-11-15T13:33:24;31.58;;;19.55;;
55575;SDS011;41437;45.478;9.116;2022-11-15T13:36:29;25.10;;;18.27;;
55575;SDS011;41437;45.478;9.116;2022-11-15T13:39:35;29.35;;;18.23;;
55575;SDS011;41437;45.478;9.116;2022-11-15T13:42:38;27.70;;;18.33;;
55575;SDS011;41437;45.478;9.116;2022-11-15T13:45:40;26.70;;;17.67;;
55575;SDS011;41437;45.478;9.116;2022-11-15T13:48:41;28.15;;;18.73;;
55575;SDS011;41437;45.478;9.116;2022-11-15T13:51:45;26.27;;;18.17;;
55575;SDS011;41437;45.478;9.116;2022-11-15T13:54:55;26.15;;;17.77;;
55575;SDS011;41437;45.478;9.116;2022-11-15T13:58:01;27.63;;;18.25;;
55575;SDS011;41437;45.478;9.116;2022-11-15T14:01:06;28.35;;;18.67;;
55575;SDS011;41437;45.478;9.116;2022-11-15T14:04:09;27.10;;;18.42;;
55575;SDS011;41437;45.478;9.116;2022-11-15T14:07:16;27.48;;;17.98;;
55575;SDS011;41437;45.478;9.116;2022-11-15T14:10:26;26.80;;;18.98;;
55575;SDS011;41437;45.478;9.116;2022-11-15T14:13:30;26.35;;;18.98;;
55575;SDS011;41437;45.478;9.116;2022-11-15T14:16:33;28.75;;;18.90;;
55575;SDS011;41437;45.478;9.116;2022-11-15T14:19:37;30.33;;;19.33;;
55575;SDS011;41437;45.478;9.116;2022-11-15T14:22:50;30.35;;;19.23;;
55575;SDS011;41437;45.478;9.116;2022-11-15T14:25:54;26.50;;;18.95;;
55575;SDS011;41437;45.478;9.116;2022-11-15T14:28:57;31.55;;;20.58;;
55575;SDS011;41437;45.478;9.116;2022-11-15T14:32:25;28.77;;;20.23;;
55575;SDS011;41437;45.478;9.116;2022-11-15T14:35:28;30.83;;;21.30;;
55575;SDS011;41437;45.478;9.116;2022-11-15T14:38:30;30.98;;;20.73;;
55575;SDS011;41437;45.478;9.116;2022-11-15T14:41:35;30.58;;;19.48;;
55575;SDS011;41437;45.478;9.116;2022-11-15T14:44:37;30.77;;;20.27;;
55575;SDS011;41437;45.478;9.116;2022-11-15T14:47:40;29.38;;;21.13;;
55575;SDS011;41437;45.478;9.116;2022-11-15T14:50:42;29.38;;;19.98;;
55575;SDS011;41437;45.478;9.116;2022-11-15T14:53:45;27.92;;;19.48;;
55575;SDS011;41437;45.478;9.116;2022-11-15T14:56:49;29.70;;;20.80;;
55575;SDS011;41437;45.478;9.116;2022-11-15T14:59:50;27.45;;;19.40;;
55575;SDS011;41437;45.478;9.116;2022-11-15T15:02:53;30.83;;;20.33;;
55575;SDS011;41437;45.478;9.116;2022-11-15T15:05:55;43.00;;;28.10;;
55575;SDS011;41437;45.478;9.116;2022-11-15T15:08:56;28.83;;;19.48;;
55575;SDS011;41437;45.478;9.116;2022-11-15T15:12:00;38.80;;;26.35;;
55575;SDS011;41437;45.478;9.116;2022-11-15T15:15:02;39.83;;;24.65;;
55575;SDS011;41437;45.478;9.116;2022-11-15T15:18:04;31.40;;;21.02;;
55575;SDS011;41437;45.478;9.116;2022-11-15T15:24:18;39.00;;;23.77;;
55575;SDS011;41437;45.478;9.116;2022-11-15T15:27:21;41.55;;;26.90;;
55575;SDS011;41437;45.478;9.116;2022-11-15T15:30:23;35.60;;;24.10;;
55575;SDS011;41437;45.478;9.116;2022-11-15T15:33:26;37.83;;;23.00;;
55575;SDS011;41437;45.478;9.116;2022-11-15T15:36:27;35.80;;;22.67;;
55575;SDS011;41437;45.478;9.116;2022-11-15T15:39:29;40.33;;;23.75;;
55575;SDS011;41437;45.478;9.116;2022-11-15T15:42:34;39.55;;;22.85;;
55575;SDS011;41437;45.478;9.116;2022-11-15T15:45:36;30.08;;;21.92;;
55575;SDS011;41437;45.478;9.116;2022-11-15T15:48:39;30.35;;;19.90;;
55575;SDS011;41437;45.478;9.116;2022-11-15T15:51:40;30.60;;;21.40;;
55575;SDS011;41437;45.478;9.116;2022-11-15T15:54:42;31.02;;;21.05;;
55575;SDS011;41437;45.478;9.116;2022-11-15T15:57:45;34.45;;;23.08;;
55575;SDS011;41437;45.478;9.116;2022-11-15T16:00:47;32.50;;;21.10;;
55575;SDS011;41437;45.478;9.116;2022-11-15T16:03:49;31.83;;;21.08;;
55575;SDS011;41437;45.478;9.116;2022-11-15T16:06:51;30.60;;;20.02;;
55575;SDS011;41437;45.478;9.116;2022-11-15T16:09:55;37.25;;;22.63;;
55575;SDS011;41437;45.478;9.116;2022-11-15T16:13:04;32.53;;;21.65;;
55575;SDS011;41437;45.478;9.116;2022-11-15T16:16:07;30.17;;;20.92;;
55575;SDS011;41437;45.478;9.116;2022-11-15T16:19:14;31.13;;;22.02;;
55575;SDS011;41437;45.478;9.116;2022-11-15T16:22:15;37.65;;;23.17;;
55575;SDS011;41437;45.478;9.116;2022-11-15T16:25:17;32.85;;;21.00;;
55575;SDS011;41437;45.478;9.116;2022-11-15T16:28:21;35.10;;;22.15;;
55575;SDS011;41437;45.478;9.116;2022-11-15T16:31:25;35.47;;;22.15;;
55575;SDS011;41437;45.478;9.116;2022-11-15T16:34:26;32.60;;;21.90;;
55575;SDS011;41437;45.478;9.116;2022-11-15T16:37:28;33.15;;;21.80;;
55575;SDS011;41437;45.478;9.116;2022-11-15T16:40:31;31.15;;;20.75;;
55575;SDS011;41437;45.478;9.116;2022-11-15T16:43:36;30.67;;;19.75;;
55575;SDS011;41437;45.478;9.116;2022-11-15T16:46:38;30.40;;;20.30;;
55575;SDS011;41437;45.478;9.116;2022-11-15T16:49:42;34.90;;;22.13;;
55575;SDS011;41437;45.478;9.116;2022-11-15T16:52:44;27.60;;;18.58;;
55575;SDS011;41437;45.478;9.116;2022-11-15T16:55:46;29.30;;;17.98;;
55575;SDS011;41437;45.478;9.116;2022-11-15T16:58:49;27.02;;;17.15;;
55575;SDS011;41437;45.478;9.116;2022-11-15T17:01:52;21.88;;;14.10;;
55575;SDS011;41437;45.478;9.116;2022-11-15T17:04:53;25.15;;;16.00;;
55575;SDS011;41437;45.478;9.116;2022-11-15T17:07:55;20.80;;;14.90;;
55575;SDS011;41437;45.478;9.116;2022-11-15T17:10:56;21.80;;;13.98;;
55575;SDS011;41437;45.478;9.116;2022-11-15T17:13:59;22.40;;;14.05;;
55575;SDS011;41437;45.478;9.116;2022-11-15T17:17:01;18.67;;;12.60;;
55575;SDS011;41437;45.478;9.116;2022-11-15T17:20:03;16.38;;;11.10;;
55575;SDS011;41437;45.478;9.116;2022-11-15T17:23:10;17.42;;;11.13;;
55575;SDS011;41437;45.478;9.116;2022-11-15T17:26:14;18.88;;;12.45;;
55575;SDS011;41437;45.478;9.116;2022-11-15T17:29:20;18.33;;;12.30;;
55575;SDS011;41437;45.478;9.116;2022-11-15T17:32:21;18.88;;;12.18;;
55575;SDS011;41437;45.478;9.116;2022-11-15T17:35:23;18.13;;;12.93;;
55575;SDS011;41437;45.478;9.116;2022-11-15T17:38:25;18.88;;;12.95;;
55575;SDS011;41437;45.478;9.116;2022-11-15T17:41:27;18.70;;;12.43;;
55575;SDS011;41437;45.478;9.116;2022-11-15T17:44:30;21.38;;;12.45;;
55575;SDS011;41437;45.478;9.116;2022-11-15T17:47:32;19.67;;;11.63;;
55575;SDS011;41437;45.478;9.116;2022-11-15T17:50:34;16.77;;;12.02;;
55575;SDS011;41437;45.478;9.116;2022-11-15T17:53:36;18.25;;;12.05;;
55575;SDS011;41437;45.478;9.116;2022-11-15T17:56:38;15.57;;;11.13;;
55575;SDS011;41437;45.478;9.116;2022-11-15T17:59:42;22.33;;;13.60;;
55575;SDS011;41437;45.478;9.116;2022-11-15T18:02:44;21.05;;;13.15;;
55575;SDS011;41437;45.478;9.116;2022-11-15T18:05:47;19.48;;;13.63;;
55575;SDS011;41437;45.478;9.116;2022-11-15T18:08:49;18.77;;;12.90;;
55575;SDS011;41437;45.478;9.116;2022-11-15T18:11:52;20.52;;;14.60;;
55575;SDS011;41437;45.478;9.116;2022-11-15T18:14:58;21.00;;;14.30;;
55575;SDS011;41437;45.478;9.116;2022-11-15T18:18:00;21.67;;;14.02;;
55575;SDS011;41437;45.478;9.116;2022-11-15T18:21:02;22.10;;;13.15;;
55575;SDS011;41437;45.478;9.116;2022-11-15T18:24:05;17.48;;;12.32;;
55575;SDS011;41437;45.478;9.116;2022-11-15T18:27:07;19.50;;;12.50;;
55575;SDS011;41437;45.478;9.116;2022-11-15T18:30:11;19.40;;;12.35;;